sensor_id;sensor_type;location;lat;lon;timestamp;temperature;humidity
62575;DHT22;53112;45.602;11.904;2022-10-30T00:02:01;16.60;66.40
62575;DHT22;53112;45.602;11.904;2022-10-30T00:04:27;16.60;65.20
62575;DHT22;53112;45.602;11.904;2022-10-30T00:06:53;16.60;65.60
62575;DHT22;53112;45.602;11.904;2022-10-30T00:09:19;16.70;65.20
62575;DHT22;53112;45.602;11.904;2022-10-30T00:11:45;16.70;64.10
62575;DHT22;53112;45.602;11.904;2022-10-30T00:14:11;16.60;64.50
62575;DHT22;53112;45.602;11.904;2022-10-30T00:16:38;16.70;64.00
62575;DHT22;53112;45.602;11.904;2022-10-30T00:19:04;16.70;64.10
62575;DHT22;53112;45.602;11.904;2022-10-30T00:21:30;16.70;63.70
62575;DHT22;53112;45.602;11.904;2022-10-30T00:23:56;16.70;64.10
62575;DHT22;53112;45.602;11.904;2022-10-30T00:26:22;16.60;64.90
62575;DHT22;53112;45.602;11.904;2022-10-30T00:28:50;16.60;64.60
62575;DHT22;53112;45.602;11.904;2022-10-30T00:31:17;16.40;64.50
62575;DHT22;53112;45.602;11.904;2022-10-30T00:33:43;16.40;64.50
62575;DHT22;53112;45.602;11.904;2022-10-30T00:36:09;16.50;64.50
62575;DHT22;53112;45.602;11.904;2022-10-30T00:38:35;16.40;64.10
62575;DHT22;53112;45.602;11.904;2022-10-30T00:41:01;16.30;64.50
62575;DHT22;53112;45.602;11.904;2022-10-30T00:43:34;16.40;64.50
62575;DHT22;53112;45.602;11.904;2022-10-30T00:49:12;16.40;63.90
62575;DHT22;53112;45.602;11.904;2022-10-30T00:51:41;16.30;65.00
62575;DHT22;53112;45.602;11.904;2022-10-30T00:54:08;16.40;64.50
62575;DHT22;53112;45.602;11.904;2022-10-30T00:56:35;16.30;64.30
62575;DHT22;53112;45.602;11.904;2022-10-30T00:59:07;16.20;64.80
62575;DHT22;53112;45.602;11.904;2022-10-30T01:01:38;16.30;64.30
62575;DHT22;53112;45.602;11.904;2022-10-30T01:04:05;16.10;65.40
62575;DHT22;53112;45.602;11.904;2022-10-30T01:06:34;15.70;68.20
62575;DHT22;53112;45.602;11.904;2022-10-30T01:09:02;15.50;70.80
62575;DHT22;53112;45.602;11.904;2022-10-30T01:11:28;15.40;70.90
62575;DHT22;53112;45.602;11.904;2022-10-30T01:13:57;15.40;71.10
62575;DHT22;53112;45.602;11.904;2022-10-30T01:19:21;15.40;70.60
62575;DHT22;53112;45.602;11.904;2022-10-30T01:22:29;15.50;69.20
62575;DHT22;53112;45.602;11.904;2022-10-30T01:27:43;15.40;69.90
62575;DHT22;53112;45.602;11.904;2022-10-30T01:33:31;15.70;67.40
62575;DHT22;53112;45.602;11.904;2022-10-30T01:38:58;15.90;66.20
62575;DHT22;53112;45.602;11.904;2022-10-30T01:41:23;16.00;65.50
62575;DHT22;53112;45.602;11.904;2022-10-30T01:43:57;15.90;65.50
62575;DHT22;53112;45.602;11.904;2022-10-30T01:55:53;15.90;65.80
62575;DHT22;53112;45.602;11.904;2022-10-30T02:00:38;15.90;65.60
62575;DHT22;53112;45.602;11.904;2022-10-30T02:03:05;15.90;64.90
62575;DHT22;53112;45.602;11.904;2022-10-30T02:05:47;15.80;65.10
62575;DHT22;53112;45.602;11.904;2022-10-30T02:08:13;15.70;65.50
62575;DHT22;53112;45.602;11.904;2022-10-30T02:10:41;15.70;65.80
62575;DHT22;53112;45.602;11.904;2022-10-30T02:13:07;15.70;65.00
62575;DHT22;53112;45.602;11.904;2022-10-30T02:15:33;15.80;64.90
62575;DHT22;53112;45.602;11.904;2022-10-30T02:18:00;15.60;65.40
62575;DHT22;53112;45.602;11.904;2022-10-30T02:20:26;15.50;66.20
62575;DHT22;53112;45.602;11.904;2022-10-30T02:22:52;15.50;65.40
62575;DHT22;53112;45.602;11.904;2022-10-30T02:25:18;15.50;65.70
62575;DHT22;53112;45.602;11.904;2022-10-30T02:27:44;15.60;65.40
62575;DHT22;53112;45.602;11.904;2022-10-30T02:30:10;15.60;65.40
62575;DHT22;53112;45.602;11.904;2022-10-30T02:32:37;15.60;64.90
62575;DHT22;53112;45.602;11.904;2022-10-30T02:35:04;15.50;65.70
62575;DHT22;53112;45.602;11.904;2022-10-30T02:37:30;15.30;66.60
62575;DHT22;53112;45.602;11.904;2022-10-30T02:40:04;15.30;66.90
62575;DHT22;53112;45.602;11.904;2022-10-30T02:42:33;15.20;67.30
62575;DHT22;53112;45.602;11.904;2022-10-30T02:45:00;15.30;66.30
62575;DHT22;53112;45.602;11.904;2022-10-30T02:47:27;15.40;65.80
62575;DHT22;53112;45.602;11.904;2022-10-30T02:49:53;15.40;66.00
62575;DHT22;53112;45.602;11.904;2022-10-30T02:52:19;15.30;65.90
62575;DHT22;53112;45.602;11.904;2022-10-30T02:54:45;15.40;65.40
62575;DHT22;53112;45.602;11.904;2022-10-30T02:57:11;15.50;65.20
62575;DHT22;53112;45.602;11.904;2022-10-30T02:59:37;15.40;65.40
62575;DHT22;53112;45.602;11.904;2022-10-30T03:02:03;15.50;65.20
62575;DHT22;53112;45.602;11.904;2022-10-30T03:04:29;15.50;65.00
62575;DHT22;53112;45.602;11.904;2022-10-30T03:06:55;15.50;65.40
62575;DHT22;53112;45.602;11.904;2022-10-30T03:09:21;15.40;64.80
62575;DHT22;53112;45.602;11.904;2022-10-30T03:11:47;15.40;64.90
62575;DHT22;53112;45.602;11.904;2022-10-30T03:14:13;15.40;64.80
62575;DHT22;53112;45.602;11.904;2022-10-30T03:16:38;15.40;65.20
62575;DHT22;53112;45.602;11.904;2022-10-30T03:19:04;15.40;65.20
62575;DHT22;53112;45.602;11.904;2022-10-30T03:21:30;15.40;64.70
62575;DHT22;53112;45.602;11.904;2022-10-30T03:23:56;15.30;64.70
62575;DHT22;53112;45.602;11.904;2022-10-30T03:26:22;15.20;65.20
62575;DHT22;53112;45.602;11.904;2022-10-30T03:28:48;15.20;65.40
62575;DHT22;53112;45.602;11.904;2022-10-30T03:31:17;15.30;65.10
62575;DHT22;53112;45.602;11.904;2022-10-30T03:33:43;15.30;64.70
62575;DHT22;53112;45.602;11.904;2022-10-30T03:36:11;15.30;64.40
62575;DHT22;53112;45.602;11.904;2022-10-30T03:38:37;15.30;64.80
62575;DHT22;53112;45.602;11.904;2022-10-30T03:41:04;15.20;64.90
62575;DHT22;53112;45.602;11.904;2022-10-30T03:43:31;15.10;65.70
62575;DHT22;53112;45.602;11.904;2022-10-30T03:45:57;15.20;65.00
62575;DHT22;53112;45.602;11.904;2022-10-30T03:48:26;15.20;64.90
62575;DHT22;53112;45.602;11.904;2022-10-30T03:50:55;15.20;65.10
62575;DHT22;53112;45.602;11.904;2022-10-30T03:53:23;15.20;64.90
62575;DHT22;53112;45.602;11.904;2022-10-30T03:55:52;15.20;64.70
62575;DHT22;53112;45.602;11.904;2022-10-30T03:58:18;15.10;65.10
62575;DHT22;53112;45.602;11.904;2022-10-30T04:00:44;15.10;64.80
62575;DHT22;53112;45.602;11.904;2022-10-30T04:03:10;14.90;66.20
62575;DHT22;53112;45.602;11.904;2022-10-30T04:05:37;14.80;66.70
62575;DHT22;53112;45.602;11.904;2022-10-30T04:08:06;14.70;67.60
62575;DHT22;53112;45.602;11.904;2022-10-30T04:10:33;14.50;68.30
62575;DHT22;53112;45.602;11.904;2022-10-30T04:13:05;14.70;66.90
62575;DHT22;53112;45.602;11.904;2022-10-30T04:15:32;14.90;66.30
62575;DHT22;53112;45.602;11.904;2022-10-30T04:17:58;14.90;65.80
62575;DHT22;53112;45.602;11.904;2022-10-30T04:20:25;15.00;65.50
62575;DHT22;53112;45.602;11.904;2022-10-30T04:23:03;15.00;65.20
62575;DHT22;53112;45.602;11.904;2022-10-30T04:25:30;15.10;65.60
62575;DHT22;53112;45.602;11.904;2022-10-30T04:27:57;15.00;65.10
62575;DHT22;53112;45.602;11.904;2022-10-30T04:30:24;15.00;64.90
62575;DHT22;53112;45.602;11.904;2022-10-30T04:32:55;15.00;64.70
62575;DHT22;53112;45.602;11.904;2022-10-30T04:35:24;14.90;66.00
62575;DHT22;53112;45.602;11.904;2022-10-30T04:37:54;14.40;68.80
62575;DHT22;53112;45.602;11.904;2022-10-30T04:40:22;14.10;71.00
62575;DHT22;53112;45.602;11.904;2022-10-30T04:42:49;14.10;70.50
62575;DHT22;53112;45.602;11.904;2022-10-30T04:45:16;14.30;69.00
62575;DHT22;53112;45.602;11.904;2022-10-30T04:47:43;14.40;68.30
62575;DHT22;53112;45.602;11.904;2022-10-30T04:50:09;14.60;67.40
62575;DHT22;53112;45.602;11.904;2022-10-30T04:52:35;14.70;66.70
62575;DHT22;53112;45.602;11.904;2022-10-30T04:55:02;14.80;66.10
62575;DHT22;53112;45.602;11.904;2022-10-30T04:57:28;14.80;66.30
62575;DHT22;53112;45.602;11.904;2022-10-30T04:59:56;14.70;66.20
62575;DHT22;53112;45.602;11.904;2022-10-30T05:02:22;14.70;66.00
62575;DHT22;53112;45.602;11.904;2022-10-30T05:04:48;14.70;65.60
62575;DHT22;53112;45.602;11.904;2022-10-30T05:07:15;14.60;67.10
62575;DHT22;53112;45.602;11.904;2022-10-30T05:09:42;14.10;70.50
62575;DHT22;53112;45.602;11.904;2022-10-30T05:12:09;14.10;69.30
62575;DHT22;53112;45.602;11.904;2022-10-30T05:14:35;14.30;67.70
62575;DHT22;53112;45.602;11.904;2022-10-30T05:17:01;14.40;67.20
62575;DHT22;53112;45.602;11.904;2022-10-30T05:19:27;14.40;67.70
62575;DHT22;53112;45.602;11.904;2022-10-30T05:21:54;14.30;67.50
62575;DHT22;53112;45.602;11.904;2022-10-30T05:24:20;14.40;66.80
62575;DHT22;53112;45.602;11.904;2022-10-30T05:26:45;14.50;66.50
62575;DHT22;53112;45.602;11.904;2022-10-30T05:29:12;14.20;69.30
62575;DHT22;53112;45.602;11.904;2022-10-30T05:31:39;14.10;69.10
62575;DHT22;53112;45.602;11.904;2022-10-30T05:34:05;14.30;67.90
62575;DHT22;53112;45.602;11.904;2022-10-30T05:36:31;14.10;68.30
62575;DHT22;53112;45.602;11.904;2022-10-30T05:38:57;14.20;67.60
62575;DHT22;53112;45.602;11.904;2022-10-30T05:41:22;14.30;67.10
62575;DHT22;53112;45.602;11.904;2022-10-30T05:43:49;14.40;66.60
62575;DHT22;53112;45.602;11.904;2022-10-30T05:46:14;14.40;66.30
62575;DHT22;53112;45.602;11.904;2022-10-30T05:48:40;14.40;66.00
62575;DHT22;53112;45.602;11.904;2022-10-30T05:51:06;14.50;66.00
62575;DHT22;53112;45.602;11.904;2022-10-30T05:53:33;14.60;65.70
62575;DHT22;53112;45.602;11.904;2022-10-30T05:55:59;14.50;65.50
62575;DHT22;53112;45.602;11.904;2022-10-30T05:58:25;14.30;67.30
62575;DHT22;53112;45.602;11.904;2022-10-30T06:00:51;14.30;67.10
62575;DHT22;53112;45.602;11.904;2022-10-30T06:03:18;14.40;66.40
62575;DHT22;53112;45.602;11.904;2022-10-30T06:05:45;14.50;66.10
62575;DHT22;53112;45.602;11.904;2022-10-30T06:08:11;14.60;65.90
62575;DHT22;53112;45.602;11.904;2022-10-30T06:10:37;14.60;65.50
62575;DHT22;53112;45.602;11.904;2022-10-30T06:13:05;14.60;65.50
62575;DHT22;53112;45.602;11.904;2022-10-30T06:15:32;14.70;65.60
62575;DHT22;53112;45.602;11.904;2022-10-30T06:17:58;14.80;65.90
62575;DHT22;53112;45.602;11.904;2022-10-30T06:20:27;14.90;65.50
62575;DHT22;53112;45.602;11.904;2022-10-30T06:22:57;14.90;65.10
62575;DHT22;53112;45.602;11.904;2022-10-30T06:25:23;15.10;64.80
62575;DHT22;53112;45.602;11.904;2022-10-30T06:27:50;15.10;65.20
62575;DHT22;53112;45.602;11.904;2022-10-30T06:30:16;15.10;65.00
62575;DHT22;53112;45.602;11.904;2022-10-30T06:32:42;15.30;64.30
62575;DHT22;53112;45.602;11.904;2022-10-30T06:35:09;15.40;64.70
62575;DHT22;53112;45.602;11.904;2022-10-30T06:37:35;15.60;64.30
62575;DHT22;53112;45.602;11.904;2022-10-30T06:40:00;15.70;63.60
62575;DHT22;53112;45.602;11.904;2022-10-30T06:42:26;15.80;63.30
62575;DHT22;53112;45.602;11.904;2022-10-30T06:44:52;16.00;63.30
62575;DHT22;53112;45.602;11.904;2022-10-30T06:47:19;16.20;63.10
62575;DHT22;53112;45.602;11.904;2022-10-30T06:49:44;16.40;62.50
62575;DHT22;53112;45.602;11.904;2022-10-30T06:52:10;16.60;63.00
62575;DHT22;53112;45.602;11.904;2022-10-30T06:54:36;16.70;62.30
62575;DHT22;53112;45.602;11.904;2022-10-30T06:57:02;16.90;62.40
62575;DHT22;53112;45.602;11.904;2022-10-30T06:59:28;16.90;63.10
62575;DHT22;53112;45.602;11.904;2022-10-30T07:01:54;17.20;62.50
62575;DHT22;53112;45.602;11.904;2022-10-30T07:04:21;17.20;63.20
62575;DHT22;53112;45.602;11.904;2022-10-30T07:06:47;17.20;63.90
62575;DHT22;53112;45.602;11.904;2022-10-30T07:09:12;16.90;65.20
62575;DHT22;53112;45.602;11.904;2022-10-30T07:11:38;16.70;66.60
62575;DHT22;53112;45.602;11.904;2022-10-30T07:14:10;16.80;66.90
62575;DHT22;53112;45.602;11.904;2022-10-30T07:16:36;17.00;67.10
62575;DHT22;53112;45.602;11.904;2022-10-30T07:19:03;17.20;66.10
62575;DHT22;53112;45.602;11.904;2022-10-30T07:21:28;17.60;65.90
62575;DHT22;53112;45.602;11.904;2022-10-30T07:23:55;18.10;64.10
62575;DHT22;53112;45.602;11.904;2022-10-30T07:26:21;18.50;62.80
62575;DHT22;53112;45.602;11.904;2022-10-30T07:28:46;18.60;62.60
62575;DHT22;53112;45.602;11.904;2022-10-30T07:31:12;18.50;62.70
62575;DHT22;53112;45.602;11.904;2022-10-30T07:33:38;18.50;63.70
62575;DHT22;53112;45.602;11.904;2022-10-30T07:36:05;18.50;63.70
62575;DHT22;53112;45.602;11.904;2022-10-30T07:38:31;18.60;63.60
62575;DHT22;53112;45.602;11.904;2022-10-30T07:40:57;18.80;64.60
62575;DHT22;53112;45.602;11.904;2022-10-30T07:43:23;19.00;63.60
62575;DHT22;53112;45.602;11.904;2022-10-30T07:45:48;19.10;62.80
62575;DHT22;53112;45.602;11.904;2022-10-30T07:48:14;19.30;62.70
62575;DHT22;53112;45.602;11.904;2022-10-30T07:50:41;19.60;62.30
62575;DHT22;53112;45.602;11.904;2022-10-30T07:53:06;19.70;62.40
62575;DHT22;53112;45.602;11.904;2022-10-30T07:55:33;19.60;62.10
62575;DHT22;53112;45.602;11.904;2022-10-30T07:57:59;19.70;62.20
62575;DHT22;53112;45.602;11.904;2022-10-30T08:00:24;19.80;62.30
62575;DHT22;53112;45.602;11.904;2022-10-30T08:02:51;19.90;62.00
62575;DHT22;53112;45.602;11.904;2022-10-30T08:05:20;20.20;61.10
62575;DHT22;53112;45.602;11.904;2022-10-30T08:07:46;20.30;61.30
62575;DHT22;53112;45.602;11.904;2022-10-30T08:10:13;20.40;61.50
62575;DHT22;53112;45.602;11.904;2022-10-30T08:12:39;20.70;61.20
62575;DHT22;53112;45.602;11.904;2022-10-30T08:15:07;20.80;60.70
62575;DHT22;53112;45.602;11.904;2022-10-30T08:17:41;21.10;60.90
62575;DHT22;53112;45.602;11.904;2022-10-30T08:20:08;21.50;60.00
62575;DHT22;53112;45.602;11.904;2022-10-30T08:22:34;21.80;58.90
62575;DHT22;53112;45.602;11.904;2022-10-30T08:25:01;22.20;57.10
62575;DHT22;53112;45.602;11.904;2022-10-30T08:27:26;22.60;56.60
62575;DHT22;53112;45.602;11.904;2022-10-30T08:29:52;23.00;56.10
62575;DHT22;53112;45.602;11.904;2022-10-30T08:32:18;23.60;54.10
62575;DHT22;53112;45.602;11.904;2022-10-30T08:34:44;23.90;53.20
62575;DHT22;53112;45.602;11.904;2022-10-30T08:37:10;24.50;51.50
62575;DHT22;53112;45.602;11.904;2022-10-30T08:39:36;25.10;50.40
62575;DHT22;53112;45.602;11.904;2022-10-30T08:42:03;25.40;49.60
62575;DHT22;53112;45.602;11.904;2022-10-30T08:44:29;25.80;49.30
62575;DHT22;53112;45.602;11.904;2022-10-30T08:46:55;26.30;47.70
62575;DHT22;53112;45.602;11.904;2022-10-30T08:49:21;26.50;46.50
62575;DHT22;53112;45.602;11.904;2022-10-30T08:51:47;26.90;46.70
62575;DHT22;53112;45.602;11.904;2022-10-30T08:54:13;27.00;45.40
62575;DHT22;53112;45.602;11.904;2022-10-30T08:56:38;26.80;44.60
62575;DHT22;53112;45.602;11.904;2022-10-30T08:59:04;27.20;45.10
62575;DHT22;53112;45.602;11.904;2022-10-30T09:01:30;26.50;46.00
62575;DHT22;53112;45.602;11.904;2022-10-30T09:03:56;26.60;45.40
62575;DHT22;53112;45.602;11.904;2022-10-30T09:06:22;26.60;45.60
62575;DHT22;53112;45.602;11.904;2022-10-30T09:08:48;27.10;42.10
62575;DHT22;53112;45.602;11.904;2022-10-30T09:11:14;27.10;45.30
62575;DHT22;53112;45.602;11.904;2022-10-30T09:13:42;28.20;42.50
62575;DHT22;53112;45.602;11.904;2022-10-30T09:16:08;28.60;40.50
62575;DHT22;53112;45.602;11.904;2022-10-30T09:18:34;27.60;43.00
62575;DHT22;53112;45.602;11.904;2022-10-30T09:20:59;27.60;40.80
62575;DHT22;53112;45.602;11.904;2022-10-30T09:23:25;27.60;42.20
62575;DHT22;53112;45.602;11.904;2022-10-30T09:25:51;27.90;41.30
62575;DHT22;53112;45.602;11.904;2022-10-30T09:28:17;29.20;40.50
62575;DHT22;53112;45.602;11.904;2022-10-30T09:30:43;30.20;38.20
62575;DHT22;53112;45.602;11.904;2022-10-30T09:33:09;30.70;37.90
62575;DHT22;53112;45.602;11.904;2022-10-30T09:35:35;30.80;36.80
62575;DHT22;53112;45.602;11.904;2022-10-30T09:38:01;30.90;36.40
62575;DHT22;53112;45.602;11.904;2022-10-30T09:48:58;31.90;33.10
62575;DHT22;53112;45.602;11.904;2022-10-30T09:56:59;30.90;33.50
62575;DHT22;53112;45.602;11.904;2022-10-30T09:59:39;30.00;35.10
62575;DHT22;53112;45.602;11.904;2022-10-30T10:05:16;32.10;33.70
62575;DHT22;53112;45.602;11.904;2022-10-30T10:07:49;32.30;32.60
62575;DHT22;53112;45.602;11.904;2022-10-30T10:12:58;32.10;31.60
62575;DHT22;53112;45.602;11.904;2022-10-30T10:15:45;32.70;33.30
62575;DHT22;53112;45.602;11.904;2022-10-30T10:18:18;33.30;30.70
62575;DHT22;53112;45.602;11.904;2022-10-30T10:20:51;32.80;30.90
62575;DHT22;53112;45.602;11.904;2022-10-30T10:23:29;32.10;33.40
62575;DHT22;53112;45.602;11.904;2022-10-30T10:25:59;32.90;31.00
62575;DHT22;53112;45.602;11.904;2022-10-30T10:28:59;33.00;30.70
62575;DHT22;53112;45.602;11.904;2022-10-30T10:36:53;31.50;33.20
62575;DHT22;53112;45.602;11.904;2022-10-30T10:42:28;31.60;33.00
62575;DHT22;53112;45.602;11.904;2022-10-30T10:51:20;33.10;31.60
62575;DHT22;53112;45.602;11.904;2022-10-30T10:54:07;33.90;30.30
62575;DHT22;53112;45.602;11.904;2022-10-30T10:56:40;35.60;28.10
62575;DHT22;53112;45.602;11.904;2022-10-30T10:59:17;36.30;26.60
62575;DHT22;53112;45.602;11.904;2022-10-30T11:04:46;36.30;25.10
62575;DHT22;53112;45.602;11.904;2022-10-30T11:07:21;36.00;26.70
62575;DHT22;53112;45.602;11.904;2022-10-30T11:09:52;36.70;26.30
62575;DHT22;53112;45.602;11.904;2022-10-30T11:12:23;36.90;25.20
62575;DHT22;53112;45.602;11.904;2022-10-30T11:14:50;35.60;26.60
62575;DHT22;53112;45.602;11.904;2022-10-30T11:17:23;37.00;25.00
62575;DHT22;53112;45.602;11.904;2022-10-30T11:19:54;38.00;25.30
62575;DHT22;53112;45.602;11.904;2022-10-30T11:22:28;37.90;26.20
62575;DHT22;53112;45.602;11.904;2022-10-30T11:24:55;38.10;24.60
62575;DHT22;53112;45.602;11.904;2022-10-30T11:30:04;37.80;25.80
62575;DHT22;53112;45.602;11.904;2022-10-30T11:32:31;38.70;24.70
62575;DHT22;53112;45.602;11.904;2022-10-30T11:37:36;38.90;24.90
62575;DHT22;53112;45.602;11.904;2022-10-30T11:40:17;38.90;23.70
62575;DHT22;53112;45.602;11.904;2022-10-30T11:42:54;39.30;23.80
62575;DHT22;53112;45.602;11.904;2022-10-30T11:45:33;39.50;23.50
62575;DHT22;53112;45.602;11.904;2022-10-30T11:48:00;38.50;24.60
62575;DHT22;53112;45.602;11.904;2022-10-30T11:50:29;38.50;25.20
62575;DHT22;53112;45.602;11.904;2022-10-30T11:53:00;39.10;25.00
62575;DHT22;53112;45.602;11.904;2022-10-30T11:55:36;39.30;24.20
62575;DHT22;53112;45.602;11.904;2022-10-30T11:58:05;39.70;23.30
62575;DHT22;53112;45.602;11.904;2022-10-30T12:00:34;40.30;23.30
62575;DHT22;53112;45.602;11.904;2022-10-30T12:03:01;40.00;21.50
62575;DHT22;53112;45.602;11.904;2022-10-30T12:05:32;37.00;24.40
62575;DHT22;53112;45.602;11.904;2022-10-30T12:10:56;36.00;25.90
62575;DHT22;53112;45.602;11.904;2022-10-30T12:13:24;36.60;24.90
62575;DHT22;53112;45.602;11.904;2022-10-30T12:16:07;37.50;26.00
62575;DHT22;53112;45.602;11.904;2022-10-30T12:18:33;38.60;24.30
62575;DHT22;53112;45.602;11.904;2022-10-30T12:21:01;38.70;23.20
62575;DHT22;53112;45.602;11.904;2022-10-30T12:23:28;38.20;25.30
62575;DHT22;53112;45.602;11.904;2022-10-30T12:25:57;39.10;24.30
62575;DHT22;53112;45.602;11.904;2022-10-30T12:28:29;40.00;24.10
62575;DHT22;53112;45.602;11.904;2022-10-30T12:31:49;40.60;23.20
62575;DHT22;53112;45.602;11.904;2022-10-30T12:36:35;40.20;23.30
62575;DHT22;53112;45.602;11.904;2022-10-30T12:39:08;40.40;23.50
62575;DHT22;53112;45.602;11.904;2022-10-30T12:42:00;41.70;22.30
62575;DHT22;53112;45.602;11.904;2022-10-30T12:44:35;42.10;21.10
62575;DHT22;53112;45.602;11.904;2022-10-30T12:47:17;42.20;20.50
62575;DHT22;53112;45.602;11.904;2022-10-30T12:49:51;42.10;20.00
62575;DHT22;53112;45.602;11.904;2022-10-30T12:52:30;42.20;20.80
62575;DHT22;53112;45.602;11.904;2022-10-30T13:00:46;43.50;19.40
62575;DHT22;53112;45.602;11.904;2022-10-30T13:06:18;44.10;19.60
62575;DHT22;53112;45.602;11.904;2022-10-30T13:09:07;44.10;19.10
62575;DHT22;53112;45.602;11.904;2022-10-30T13:11:47;45.20;18.20
62575;DHT22;53112;45.602;11.904;2022-10-30T13:14:20;45.20;17.50
62575;DHT22;53112;45.602;11.904;2022-10-30T13:16:49;42.20;19.40
62575;DHT22;53112;45.602;11.904;2022-10-30T13:19:16;43.30;19.80
62575;DHT22;53112;45.602;11.904;2022-10-30T13:27:25;44.60;18.50
62575;DHT22;53112;45.602;11.904;2022-10-30T13:46:39;39.50;22.60
62575;DHT22;53112;45.602;11.904;2022-10-30T13:51:48;37.20;24.40
62575;DHT22;53112;45.602;11.904;2022-10-30T13:54:34;36.70;25.20
62575;DHT22;53112;45.602;11.904;2022-10-30T13:57:42;37.90;24.40
62575;DHT22;53112;45.602;11.904;2022-10-30T14:00:14;40.30;22.30
62575;DHT22;53112;45.602;11.904;2022-10-30T14:02:48;43.20;19.60
62575;DHT22;53112;45.602;11.904;2022-10-30T14:10:55;46.10;17.80
62575;DHT22;53112;45.602;11.904;2022-10-30T14:16:01;46.20;18.40
62575;DHT22;53112;45.602;11.904;2022-10-30T14:18:43;46.10;18.10
62575;DHT22;53112;45.602;11.904;2022-10-30T14:24:43;46.40;16.90
62575;DHT22;53112;45.602;11.904;2022-10-30T14:26:52;45.50;17.80
62575;DHT22;53112;45.602;11.904;2022-10-30T14:31:55;45.00;18.40
62575;DHT22;53112;45.602;11.904;2022-10-30T14:34:40;42.90;20.40
62575;DHT22;53112;45.602;11.904;2022-10-30T14:37:07;40.50;22.20
62575;DHT22;53112;45.602;11.904;2022-10-30T14:39:44;39.10;24.30
62575;DHT22;53112;45.602;11.904;2022-10-30T14:55:45;35.50;28.50
62575;DHT22;53112;45.602;11.904;2022-10-30T14:58:25;34.90;29.00
62575;DHT22;53112;45.602;11.904;2022-10-30T15:03:52;34.10;29.90
62575;DHT22;53112;45.602;11.904;2022-10-30T15:06:52;34.00;29.50
62575;DHT22;53112;45.602;11.904;2022-10-30T15:09:39;33.80;30.00
62575;DHT22;53112;45.602;11.904;2022-10-30T15:12:17;33.60;30.20
62575;DHT22;53112;45.602;11.904;2022-10-30T15:14:53;33.30;30.80
62575;DHT22;53112;45.602;11.904;2022-10-30T15:19:52;32.60;31.90
62575;DHT22;53112;45.602;11.904;2022-10-30T15:22:20;32.30;32.50
62575;DHT22;53112;45.602;11.904;2022-10-30T15:24:49;32.00;33.20
62575;DHT22;53112;45.602;11.904;2022-10-30T15:27:18;31.90;33.50
62575;DHT22;53112;45.602;11.904;2022-10-30T15:29:58;31.70;33.60
62575;DHT22;53112;45.602;11.904;2022-10-30T15:32:25;31.50;34.50
62575;DHT22;53112;45.602;11.904;2022-10-30T15:37:22;31.10;35.10
62575;DHT22;53112;45.602;11.904;2022-10-30T15:39:48;30.70;35.30
62575;DHT22;53112;45.602;11.904;2022-10-30T15:42:15;30.50;35.70
62575;DHT22;53112;45.602;11.904;2022-10-30T15:44:43;30.30;36.20
62575;DHT22;53112;45.602;11.904;2022-10-30T15:47:15;30.00;36.80
62575;DHT22;53112;45.602;11.904;2022-10-30T15:49:53;29.70;37.20
62575;DHT22;53112;45.602;11.904;2022-10-30T15:54:52;29.00;38.60
62575;DHT22;53112;45.602;11.904;2022-10-30T15:57:43;28.60;39.30
62575;DHT22;53112;45.602;11.904;2022-10-30T16:02:58;28.10;40.10
62575;DHT22;53112;45.602;11.904;2022-10-30T16:05:25;28.00;40.40
62575;DHT22;53112;45.602;11.904;2022-10-30T16:07:55;27.80;40.70
62575;DHT22;53112;45.602;11.904;2022-10-30T16:10:25;27.50;41.70
62575;DHT22;53112;45.602;11.904;2022-10-30T16:12:51;27.20;41.80
62575;DHT22;53112;45.602;11.904;2022-10-30T16:15:37;27.10;42.60
62575;DHT22;53112;45.602;11.904;2022-10-30T16:18:17;26.40;44.70
62575;DHT22;53112;45.602;11.904;2022-10-30T16:20:46;26.40;44.60
62575;DHT22;53112;45.602;11.904;2022-10-30T16:23:13;26.30;45.00
62575;DHT22;53112;45.602;11.904;2022-10-30T16:25:40;26.00;44.60
62575;DHT22;53112;45.602;11.904;2022-10-30T16:28:45;25.40;47.10
62575;DHT22;53112;45.602;11.904;2022-10-30T16:31:07;25.10;48.60
62575;DHT22;53112;45.602;11.904;2022-10-30T16:33:41;24.80;49.30
62575;DHT22;53112;45.602;11.904;2022-10-30T16:36:13;24.90;48.40
62575;DHT22;53112;45.602;11.904;2022-10-30T16:38:45;25.00;47.30
62575;DHT22;53112;45.602;11.904;2022-10-30T16:41:12;24.80;47.80
62575;DHT22;53112;45.602;11.904;2022-10-30T16:43:40;24.80;47.30
62575;DHT22;53112;45.602;11.904;2022-10-30T16:48:41;24.20;50.80
62575;DHT22;53112;45.602;11.904;2022-10-30T16:51:13;24.20;49.30
62575;DHT22;53112;45.602;11.904;2022-10-30T16:53:48;24.30;49.30
62575;DHT22;53112;45.602;11.904;2022-10-30T16:56:27;24.30;49.20
62575;DHT22;53112;45.602;11.904;2022-10-30T16:58:56;24.30;49.30
62575;DHT22;53112;45.602;11.904;2022-10-30T17:01:26;24.20;48.40
62575;DHT22;53112;45.602;11.904;2022-10-30T17:03:53;24.10;48.90
62575;DHT22;53112;45.602;11.904;2022-10-30T17:08:57;23.10;54.70
62575;DHT22;53112;45.602;11.904;2022-10-30T17:11:38;22.70;54.60
62575;DHT22;53112;45.602;11.904;2022-10-30T17:14:20;22.70;55.00
62575;DHT22;53112;45.602;11.904;2022-10-30T17:16:55;22.50;54.90
62575;DHT22;53112;45.602;11.904;2022-10-30T17:22:01;22.50;54.60
62575;DHT22;53112;45.602;11.904;2022-10-30T17:24:34;22.30;56.20
62575;DHT22;53112;45.602;11.904;2022-10-30T17:27:03;22.10;57.20
62575;DHT22;53112;45.602;11.904;2022-10-30T17:34:40;22.30;54.60
62575;DHT22;53112;45.602;11.904;2022-10-30T17:37:06;22.40;54.00
62575;DHT22;53112;45.602;11.904;2022-10-30T17:39:32;22.30;54.30
62575;DHT22;53112;45.602;11.904;2022-10-30T17:41:58;22.00;55.60
62575;DHT22;53112;45.602;11.904;2022-10-30T17:44:24;21.70;56.80
62575;DHT22;53112;45.602;11.904;2022-10-30T17:46:50;21.70;56.00
62575;DHT22;53112;45.602;11.904;2022-10-30T17:49:30;22.00;55.10
62575;DHT22;53112;45.602;11.904;2022-10-30T17:51:57;21.90;55.90
62575;DHT22;53112;45.602;11.904;2022-10-30T17:54:24;22.00;54.60
62575;DHT22;53112;45.602;11.904;2022-10-30T17:56:50;21.90;54.80
62575;DHT22;53112;45.602;11.904;2022-10-30T17:59:17;21.90;54.60
62575;DHT22;53112;45.602;11.904;2022-10-30T18:01:44;21.90;54.60
62575;DHT22;53112;45.602;11.904;2022-10-30T18:04:15;21.80;54.80
62575;DHT22;53112;45.602;11.904;2022-10-30T18:06:42;21.70;55.10
62575;DHT22;53112;45.602;11.904;2022-10-30T18:09:09;21.40;56.20
62575;DHT22;53112;45.602;11.904;2022-10-30T18:11:36;21.20;57.50